Terminal Aerodrome Forecast
Issued by NWS

Home | Current Version | Previous Version | Text Only | Print | Product List | Glossary On
Versions: 1 2 3 4 5 6 7 8 9 10 11 12
000
FTUS45 KABQ 050530
TAFROW
TAF
KROW 050530Z 0506/0606 36007KT P6SM FEW150
     FM050900 13005KT P6SM SKC
     FM051800 15010KT P6SM SCT100
     FM060200 16006KT P6SM SCT080=

USA.gov is the U.S. government's official web portal to all federal, state and local government web resources and services.